Météo Nord-Pas-de-Calais   La météo au plus près de chez vous

Station météorologique

Observations météo à Marcenat (15114)

15114002 1075 m Dernier relevé à 21:30
14.5°C
Humidité 64 % Vent 4 km/h

Journée consultée

Jeudi 3 Septembre 2026

Synthèse de la journée

Périodes de référence en UTC

Température maximale

24.9°C

à 17:00

06h 06h

Température minimale

7.2°C

à 08:00

18h 18h

Rafale maximale

19 km/h

à 17:06

00h 00h

Précipitations

0 mm

Cumul quotidien

06h 06h

Ensoleillement

11h 42 mins

Durée quotidienne

00h 00h

Graphiques de la journée

Heure locale Réduire

Données détaillées

Relevés météo

Pas de 6 minutes Afficher les relevés infra-horaires
Relevés météo détaillés à Marcenat pour le Jeudi 3 Septembre 2026
Heure Température °C Point de rosée °C Humidité % Vent moyen (raf.), km/h Précipitations mm Hauteur neige cm Ensoleillement min Rayonnement global W/m²
21:30 14.5 °C 10.5 °C 77 % 9 km/h (12 km/h) 0 mm0 mm 0 cm 0 min 0 W/m²
21:24 14.7 °C 10.5 °C 76 % 8 km/h (12 km/h) 0 mm0 mm 0 cm 0 min 0 W/m²
21:18 15.2 °C 10.8 °C 75 % 10 km/h (12 km/h) 0 mm0 mm 0 cm 0 min 0 W/m²
21:12 15.2 °C 10.8 °C 75 % 10 km/h (12 km/h) 0 mm0 mm 0 cm 0 min 0 W/m²
21:06 15.2 °C 10.8 °C 75 % 9 km/h (11 km/h) 0 mm0 mm 0 cm 0 min 0 W/m²
21:00 15 °C 10.8 °C 76 % 7 km/h (9 km/h) 0 mm0 mm 0 cm 0 min 0 W/m²
20:54 15.3 °C 10.7 °C 74 % 5 km/h (8 km/h) 0 mm0 mm 0 cm 0 min 0 W/m²
20:48 16 °C 11 °C 72 % 6 km/h (9 km/h) 0 mm0 mm 0 cm 0 min 0 W/m²
20:42 16.3 °C 10.8 °C 70 % 6 km/h (9 km/h) 0 mm0 mm 0 cm 0 min 0 W/m²
20:36 17.5 °C 10.8 °C 65 % 5 km/h (8 km/h) 0 mm0 mm 0 cm 0 min 0 W/m²
20:30 17.8 °C 10.9 °C 64 % 4 km/h (7 km/h) 0 mm0 mm 0 cm 0 min 0 W/m²
20:24 18.5 °C 11.1 °C 62 % 2 km/h (5 km/h) 0 mm0 mm 0 cm 0 min 0 W/m²
20:18 19.7 °C 11.2 °C 58 % 2 km/h (4 km/h) 0 mm0 mm 0 cm 0 min 0 W/m²
20:12 20.4 °C 11.1 °C 55 % 2 km/h (4 km/h) 0 mm0 mm 0 cm 0 min 0 W/m²
20:06 21.1 °C 10.9 °C 52 % 2 km/h (4 km/h) 0 mm0 mm 0 cm 0 min 3.3 W/m²
20:00 21.9 °C 11 °C 50 % 2 km/h (5 km/h) 0 mm0 mm 0 cm 4 min 10.4 W/m²
19:54 22.4 °C 10.8 °C 48 % 2 km/h (5 km/h) 0 mm0 mm 0 cm 6 min 15.9 W/m²
19:48 23.1 °C 11.5 °C 48 % 3 km/h (7 km/h) 0 mm0 mm 0 cm 1 min 11 W/m²
19:42 23.4 °C 10.8 °C 45 % 3 km/h (9 km/h) 0 mm0 mm 0 cm 0 min 7.4 W/m²
19:36 23.4 °C 10.4 °C 44 % 5 km/h (9 km/h) 0 mm0 mm 0 cm 0 min 8.4 W/m²
19:30 23.7 °C 10.7 °C 44 % 5 km/h (11 km/h) 0 mm0 mm 0 cm 2 min 22.7 W/m²
19:24 23.6 °C 10.6 °C 44 % 6 km/h (11 km/h) 0 mm0 mm 0 cm 6 min 46.6 W/m²
19:18 23.8 °C 10.8 °C 44 % 5 km/h (10 km/h) 0 mm0 mm 0 cm 6 min 53.2 W/m²
19:12 24 °C 10.6 °C 43 % 4 km/h (10 km/h) 0 mm0 mm 0 cm 6 min 59.9 W/m²
19:06 24.3 °C 10.6 °C 42 % 5 km/h (10 km/h) 0 mm0 mm 0 cm 6 min 66.7 W/m²
19:00 24.2 °C 10.5 °C 42 % 5 km/h (11 km/h) 0 mm0 mm 0 cm 6 min 73.4 W/m²
18:54 24.1 °C 10.4 °C 42 % 7 km/h (13 km/h) 0 mm0 mm 0 cm 6 min 80.4 W/m²
18:48 24.2 °C 9.7 °C 40 % 7 km/h (13 km/h) 0 mm0 mm 0 cm 6 min 87.2 W/m²
18:42 24.4 °C 10.7 °C 42 % 7 km/h (14 km/h) 0 mm0 mm 0 cm 6 min 94.2 W/m²
18:36 24 °C 9.9 °C 41 % 9 km/h (17 km/h) 0 mm0 mm 0 cm 6 min 101.6 W/m²
18:30 24.2 °C 10.8 °C 43 % 9 km/h (17 km/h) 0 mm0 mm 0 cm 6 min 108.6 W/m²
18:24 24.3 °C 10.2 °C 41 % 8 km/h (15 km/h) 0 mm0 mm 0 cm 6 min 116 W/m²
18:18 24.6 °C 10.1 °C 40 % 7 km/h (15 km/h) 0 mm0 mm 0 cm 6 min 122.8 W/m²
18:12 24.6 °C 10.5 °C 41 % 8 km/h (13 km/h) 0 mm0 mm 0 cm 6 min 129.9 W/m²
18:06 24.4 °C 10.3 °C 41 % 8 km/h (14 km/h) 0 mm0 mm 0 cm 6 min 135.2 W/m²
18:00 24.4 °C 9.9 °C 40 % 8 km/h (14 km/h) 0 mm0 mm 0 cm 6 min 134.4 W/m²
17:54 24.5 °C 9.6 °C 39 % 7 km/h (15 km/h) 0 mm0 mm 0 cm 6 min 139.4 W/m²
17:48 24.4 °C 10.3 °C 41 % 9 km/h (17 km/h) 0 mm0 mm 0 cm 6 min 142.5 W/m²
17:42 24.2 °C 10.1 °C 41 % 10 km/h (17 km/h) 0 mm0 mm 0 cm 6 min 155.8 W/m²
17:36 24.6 °C 10.5 °C 41 % 8 km/h (15 km/h) 0 mm0 mm 0 cm 6 min 159.7 W/m²
17:30 24.6 °C 10.1 °C 40 % 9 km/h (17 km/h) 0 mm0 mm 0 cm 6 min 168.2 W/m²
17:24 24.4 °C 9.9 °C 40 % 9 km/h (17 km/h) 0 mm0 mm 0 cm 6 min 180.8 W/m²
17:18 24.6 °C 11.2 °C 43 % 8 km/h (17 km/h) 0 mm0 mm 0 cm 6 min 185.5 W/m²
17:12 24.5 °C 10.7 °C 42 % 9 km/h (19 km/h) 0 mm0 mm 0 cm 6 min 185.3 W/m²
17:06 24.5 °C 10 °C 40 % 9 km/h (19 km/h) 0 mm0 mm 0 cm 6 min 191.7 W/m²
17:00 24.6 °C 11.2 °C 43 % 7 km/h (13 km/h) 0 mm0 mm 0 cm 6 min 199.1 W/m²
16:54 24.6 °C 9.7 °C 39 % 9 km/h (15 km/h) 0 mm0 mm 0 cm 6 min 203.7 W/m²
16:48 24.6 °C 10.8 °C 42 % 9 km/h (14 km/h) 0 mm0 mm 0 cm 6 min 209.1 W/m²
16:42 24.3 °C 10.6 °C 42 % 9 km/h (16 km/h) 0 mm0 mm 0 cm 6 min 216.3 W/m²
16:36 24.5 °C 10.7 °C 42 % 9 km/h (18 km/h) 0 mm0 mm 0 cm 6 min 222.8 W/m²
16:30 24.3 °C 10.9 °C 43 % 6 km/h (13 km/h) 0 mm0 mm 0 cm 6 min 226.7 W/m²
16:24 24.2 °C 11.2 °C 44 % 8 km/h (15 km/h) 0 mm0 mm 0 cm 6 min 231.3 W/m²
16:18 24.1 °C 10.7 °C 43 % 9 km/h (15 km/h) 0 mm0 mm 0 cm 6 min 238 W/m²
16:12 24.6 °C 11.2 °C 43 % 8 km/h (14 km/h) 0 mm0 mm 0 cm 6 min 238.7 W/m²
16:06 24.6 °C 11.5 °C 44 % 7 km/h (13 km/h) 0 mm0 mm 0 cm 6 min 246 W/m²
16:00 24.7 °C 11.6 °C 44 % 6 km/h (12 km/h) 0 mm0 mm 0 cm 6 min 248.7 W/m²
15:54 24.7 °C 12 °C 45 % 6 km/h (14 km/h) 0 mm0 mm 0 cm 6 min 252.6 W/m²
15:48 24.2 °C 11.2 °C 44 % 6 km/h (14 km/h) 0 mm0 mm 0 cm 6 min 257.3 W/m²
15:42 24.2 °C 11.5 °C 45 % 7 km/h (13 km/h) 0 mm0 mm 0 cm 6 min 261.2 W/m²
15:36 24 °C 11.7 °C 46 % 8 km/h (15 km/h) 0 mm0 mm 0 cm 6 min 264.4 W/m²
15:30 23.9 °C 10.9 °C 44 % 8 km/h (15 km/h) 0 mm0 mm 0 cm 6 min 264 W/m²
15:24 23.9 °C 10.9 °C 44 % 7 km/h (14 km/h) 0 mm0 mm 0 cm 6 min 270.4 W/m²
15:18 23.9 °C 10.9 °C 44 % 6 km/h (15 km/h) 0 mm0 mm 0 cm 6 min 273.3 W/m²
15:12 24 °C 11.3 °C 45 % 4 km/h (10 km/h) 0 mm0 mm 0 cm 6 min 275.6 W/m²
15:06 24 °C 11 °C 44 % 5 km/h (11 km/h) 0 mm0 mm 0 cm 6 min 278 W/m²
15:00 23.9 °C 10.9 °C 44 % 5 km/h (13 km/h) 0 mm0 mm 0 cm 6 min 280 W/m²
14:54 24.2 °C 11.8 °C 46 % 5 km/h (13 km/h) 0 mm0 mm 0 cm 6 min 282 W/m²
14:48 23.6 °C 10.6 °C 44 % 5 km/h (12 km/h) 0 mm0 mm 0 cm 6 min 283.7 W/m²
14:42 23.4 °C 10.4 °C 44 % 5 km/h (12 km/h) 0 mm0 mm 0 cm 6 min 285.1 W/m²
14:36 23.6 °C 10.6 °C 44 % 5 km/h (13 km/h) 0 mm0 mm 0 cm 6 min 286.6 W/m²
14:30 23.5 °C 10.9 °C 45 % 7 km/h (13 km/h) 0 mm0 mm 0 cm 6 min 287.3 W/m²
14:24 23.6 °C 10.3 °C 43 % 6 km/h (13 km/h) 0 mm0 mm 0 cm 6 min 288 W/m²
14:18 23.3 °C 10.4 °C 44 % 6 km/h (13 km/h) 0 mm0 mm 0 cm 6 min 288.8 W/m²
14:12 23.3 °C 10.4 °C 44 % 6 km/h (13 km/h) 0 mm0 mm 0 cm 6 min 289.3 W/m²
14:06 22.9 °C 9.7 °C 43 % 6 km/h (12 km/h) 0 mm0 mm 0 cm 6 min 290.2 W/m²
14:00 23.2 °C 9.9 °C 43 % 8 km/h (14 km/h) 0 mm0 mm 0 cm 6 min 290.4 W/m²
13:54 23.4 °C 10.1 °C 43 % 8 km/h (14 km/h) 0 mm0 mm 0 cm 6 min 290 W/m²
13:48 23.5 °C 10.9 °C 45 % 6 km/h (14 km/h) 0 mm0 mm 0 cm 6 min 289.8 W/m²
13:42 22.9 °C 10.3 °C 45 % 8 km/h (16 km/h) 0 mm0 mm 0 cm 6 min 289.7 W/m²
13:36 22.6 °C 9.4 °C 43 % 10 km/h (18 km/h) 0 mm0 mm 0 cm 6 min 289 W/m²
13:30 22.8 °C 10.2 °C 45 % 9 km/h (18 km/h) 0 mm0 mm 0 cm 6 min 288.5 W/m²
13:24 22.5 °C 9.3 °C 43 % 9 km/h (15 km/h) 0 mm0 mm 0 cm 6 min 287.4 W/m²
13:18 22.2 °C 9.4 °C 44 % 9 km/h (15 km/h) 0 mm0 mm 0 cm 6 min 286.4 W/m²
13:12 22 °C 9.8 °C 46 % 8 km/h (15 km/h) 0 mm0 mm 0 cm 6 min 285.5 W/m²
13:06 21.9 °C 9.4 °C 45 % 8 km/h (14 km/h) 0 mm0 mm 0 cm 6 min 284.1 W/m²
13:00 22 °C 10.2 °C 47 % 8 km/h (14 km/h) 0 mm0 mm 0 cm 6 min 282.8 W/m²
12:54 21.6 °C 8.8 °C 44 % 7 km/h (14 km/h) 0 mm0 mm 0 cm 6 min 281.5 W/m²
12:48 21.6 °C 9.2 °C 45 % 6 km/h (13 km/h) 0 mm0 mm 0 cm 6 min 279.7 W/m²
12:42 21.7 °C 9.6 °C 46 % 5 km/h (12 km/h) 0 mm0 mm 0 cm 6 min 276.9 W/m²
12:36 21.6 °C 10.4 °C 49 % 5 km/h (11 km/h) 0 mm0 mm 0 cm 6 min 275.2 W/m²
12:30 21 °C 8.3 °C 44 % 5 km/h (16 km/h) 0 mm0 mm 0 cm 6 min 273.3 W/m²
12:24 21 °C 8.9 °C 46 % 5 km/h (12 km/h) 0 mm0 mm 0 cm 6 min 270.4 W/m²
12:18 21.1 °C 9.7 °C 48 % 6 km/h (12 km/h) 0 mm0 mm 0 cm 6 min 267.7 W/m²
12:12 21.4 °C 10.2 °C 49 % 5 km/h (12 km/h) 0 mm0 mm 0 cm 6 min 264.7 W/m²
12:06 20.7 °C 8.7 °C 46 % 6 km/h (12 km/h) 0 mm0 mm 0 cm 6 min 261.7 W/m²
12:00 20.4 °C 8.1 °C 45 % 8 km/h (15 km/h) 0 mm0 mm 0 cm 6 min 258.4 W/m²
11:54 20.3 °C 7.6 °C 44 % 8 km/h (15 km/h) 0 mm0 mm 0 cm 6 min 254.7 W/m²
11:48 20 °C 7.4 °C 44 % 8 km/h (13 km/h) 0 mm0 mm 0 cm 6 min 251.1 W/m²
11:42 20 °C 7.7 °C 45 % 8 km/h (13 km/h) 0 mm0 mm 0 cm 6 min 247.1 W/m²
11:36 20.1 °C 8.1 °C 46 % 6 km/h (13 km/h) 0 mm0 mm 0 cm 6 min 243 W/m²
11:30 19.9 °C 6.9 °C 43 % 6 km/h (13 km/h) 0 mm0 mm 0 cm 6 min 239.1 W/m²
11:24 19.8 °C 6.2 °C 41 % 8 km/h (13 km/h) 0 mm0 mm 0 cm 6 min 235.1 W/m²
11:18 19.8 °C 5.4 °C 39 % 8 km/h (13 km/h) 0 mm0 mm 0 cm 6 min 230.8 W/m²
11:12 19.8 °C 5.1 °C 38 % 6 km/h (11 km/h) 0 mm0 mm 0 cm 6 min 225.6 W/m²
11:06 19.9 °C 8.9 °C 49 % 6 km/h (12 km/h) 0 mm0 mm 0 cm 6 min 220.8 W/m²
11:00 19.3 °C 7.4 °C 46 % 6 km/h (12 km/h) 0 mm0 mm 0 cm 6 min 215.9 W/m²
10:54 19.5 °C 6.9 °C 44 % 5 km/h (12 km/h) 0 mm0 mm 0 cm 6 min 211.1 W/m²
10:48 19.6 °C 8.9 °C 50 % 4 km/h (12 km/h) 0 mm0 mm 0 cm 6 min 206.2 W/m²
10:42 19.2 °C 8.2 °C 49 % 4 km/h (9 km/h) 0 mm0 mm 0 cm 6 min 201.6 W/m²
10:36 19 °C 7.7 °C 48 % 4 km/h (9 km/h) 0 mm0 mm 0 cm 6 min 196.4 W/m²
10:30 18.7 °C 8.1 °C 50 % 4 km/h (10 km/h) 0 mm0 mm 0 cm 6 min 191.1 W/m²
10:24 18.7 °C 8.6 °C 52 % 4 km/h (10 km/h) 0 mm0 mm 0 cm 6 min 186.3 W/m²
10:18 18.5 °C 9.6 °C 56 % 4 km/h (10 km/h) 0 mm0 mm 0 cm 6 min 180.2 W/m²
10:12 18.2 °C 10.3 °C 60 % 5 km/h (9 km/h) 0 mm0 mm 0 cm 6 min 174.6 W/m²
10:06 18 °C 10.4 °C 61 % 5 km/h (9 km/h) 0 mm0 mm 0 cm 6 min 168.7 W/m²
10:00 18 °C 10.1 °C 60 % 4 km/h (8 km/h) 0 mm0 mm 0 cm 6 min 162.4 W/m²
09:54 18 °C 9.3 °C 57 % 4 km/h (8 km/h) 0 mm0 mm 0 cm 6 min 156.3 W/m²
09:48 17.8 °C 9.4 °C 58 % 4 km/h (6 km/h) 0 mm0 mm 0 cm 6 min 150.1 W/m²
09:42 17.7 °C 9.3 °C 58 % 4 km/h (7 km/h) 0 mm0 mm 0 cm 6 min 143.8 W/m²
09:36 17.8 °C 9.9 °C 60 % 4 km/h (7 km/h) 0 mm0 mm 0 cm 6 min 137.4 W/m²
09:30 17.9 °C 9.8 °C 59 % 5 km/h (8 km/h) 0 mm0 mm 0 cm 6 min 130.5 W/m²
09:24 17.5 °C 11.1 °C 66 % 5 km/h (8 km/h) 0 mm0 mm 0 cm 6 min 123.6 W/m²
09:18 17 °C 10.1 °C 64 % 4 km/h (7 km/h) 0 mm0 mm 0 cm 6 min 116.6 W/m²
09:12 16.5 °C 11.2 °C 71 % 4 km/h (6 km/h) 0 mm0 mm 0 cm 6 min 109.7 W/m²
09:06 15.8 °C 11.2 °C 74 % 5 km/h (6 km/h) 0 mm0 mm 0 cm 6 min 102.8 W/m²
09:00 15.3 °C 11.3 °C 77 % 5 km/h (8 km/h) 0 mm0 mm 0 cm 6 min 95.8 W/m²
08:54 14.5 °C 10.9 °C 79 % 6 km/h (8 km/h) 0 mm0 mm 0 cm 6 min 88.8 W/m²
08:48 13.6 °C 10.4 °C 81 % 6 km/h (10 km/h) 0 mm0 mm 0 cm 6 min 81.9 W/m²
08:42 12.7 °C 9.7 °C 82 % 7 km/h (10 km/h) 0 mm0 mm 0 cm 6 min 75.2 W/m²
08:36 12.1 °C 9.7 °C 85 % 6 km/h (10 km/h) 0 mm0 mm 0 cm 6 min 68.2 W/m²
08:30 11.7 °C 9.1 °C 84 % 5 km/h (8 km/h) 0 mm0 mm 0 cm 6 min 61.4 W/m²
08:24 11.3 °C 8.9 °C 85 % 6 km/h (8 km/h) 0 mm0 mm 0 cm 6 min 54.4 W/m²
08:18 10.8 °C 9.1 °C 89 % 7 km/h (9 km/h) 0 mm0 mm 0 cm 6 min 47.8 W/m²
08:12 9.8 °C 7.9 °C 88 % 8 km/h (10 km/h) 0 mm0 mm 0 cm 6 min 41.6 W/m²
08:06 9.3 °C 7.6 °C 89 % 8 km/h (10 km/h) 0 mm0 mm 0 cm 6 min 35.6 W/m²
08:00 8.7 °C 7.5 °C 92 % 8 km/h (12 km/h) 0 mm0 mm 0 cm 5 min 25 W/m²
07:54 8.2 °C 7 °C 92 % 10 km/h (13 km/h) 0 mm0 mm 0 cm 0 min 6.7 W/m²
07:48 8.2 °C 6.8 °C 91 % 11 km/h (14 km/h) 0 mm0 mm 0 cm 0 min 5.7 W/m²
07:42 8.2 °C 6.7 °C 90 % 10 km/h (13 km/h) 0 mm0 mm 0 cm 0 min 4.8 W/m²
07:36 8.6 °C 7.2 °C 91 % 10 km/h (12 km/h) 0 mm0 mm 0 cm 0 min 2 W/m²
07:30 8.5 °C 7.3 °C 92 % 10 km/h (12 km/h) 0 mm0 mm 0 cm 0 min 0 W/m²
07:24 8.5 °C 7.4 °C 93 % 9 km/h (12 km/h) 0 mm0 mm 0 cm 0 min 0 W/m²
07:18 8.1 °C 7 °C 93 % 9 km/h (13 km/h) 0 mm0 mm 0 cm 0 min 0 W/m²
07:12 7.7 °C 6.8 °C 94 % 8 km/h (13 km/h) 0 mm0 mm 0 cm 0 min 0 W/m²
07:06 7.3 °C 6.2 °C 93 % 7 km/h (10 km/h) 0 mm0 mm 0 cm 0 min 0 W/m²
07:00 7.4 °C 6 °C 91 % 8 km/h (10 km/h) 0 mm0 mm 0 cm 0 min 0 W/m²
06:54 7.9 °C 6.5 °C 91 % 9 km/h (12 km/h) 0 mm0 mm 0 cm 0 min 0 W/m²
06:48 8.3 °C 7.1 °C 92 % 10 km/h (13 km/h) 0 mm0 mm 0 cm 0 min 0 W/m²
06:42 8.3 °C 7.1 °C 92 % 12 km/h (15 km/h) 0 mm0 mm 0 cm 0 min 0 W/m²
06:36 8.3 °C 7.2 °C 93 % 11 km/h (15 km/h) 0 mm0 mm 0 cm 0 min 0 W/m²
06:30 8 °C 6.8 °C 92 % 11 km/h (14 km/h) 0 mm0 mm 0 cm 0 min 0 W/m²
06:24 8.1 °C 6.9 °C 92 % 11 km/h (14 km/h) 0 mm0 mm 0 cm 0 min 0 W/m²
06:18 8.4 °C 7 °C 91 % 11 km/h (14 km/h) 0 mm0 mm 0 cm 0 min 0 W/m²
06:12 8.6 °C 7.2 °C 91 % 12 km/h (14 km/h) 0 mm0 mm 0 cm 0 min 0 W/m²
06:06 8.5 °C 7.1 °C 91 % 10 km/h (13 km/h) 0 mm0 mm 0 cm 0 min 0 W/m²
06:00 8.3 °C 7.1 °C 92 % 10 km/h (13 km/h) 0 mm0 mm 0 cm 0 min 0 W/m²
05:54 8.2 °C 7 °C 92 % 10 km/h (13 km/h) 0 mm0 mm 0 cm 0 min 0 W/m²
05:48 8.2 °C 7 °C 92 % 10 km/h (12 km/h) 0 mm0 mm 0 cm 0 min 0 W/m²
05:42 8.2 °C 7 °C 92 % 10 km/h (12 km/h) 0 mm0 mm 0 cm 0 min 0 W/m²
05:36 8.3 °C 7.1 °C 92 % 9 km/h (12 km/h) 0 mm0 mm 0 cm 0 min 0 W/m²
05:30 8.3 °C 7.1 °C 92 % 9 km/h (11 km/h) 0 mm0 mm 0 cm 0 min 0 W/m²
05:24 8.2 °C 7 °C 92 % 9 km/h (11 km/h) 0 mm0 mm 0 cm 0 min 0 W/m²
05:18 7.9 °C 6.5 °C 91 % 9 km/h (11 km/h) 0 mm0 mm 0 cm 0 min 0 W/m²
05:12 8.2 °C 6.8 °C 91 % 8 km/h (11 km/h) 0 mm0 mm 0 cm 0 min 0 W/m²
05:06 8.4 °C 7 °C 91 % 8 km/h (10 km/h) 0 mm0 mm 0 cm 0 min 0 W/m²
05:00 8.5 °C 7.3 °C 92 % 8 km/h (10 km/h) 0 mm0 mm 0 cm 0 min 0 W/m²
04:54 8.5 °C 7.3 °C 92 % 9 km/h (11 km/h) 0 mm0 mm 0 cm 0 min 0 W/m²
04:48 8.3 °C 7.1 °C 92 % 9 km/h (11 km/h) 0 mm0 mm 0 cm 0 min 0 W/m²
04:42 8.2 °C 7 °C 92 % 8 km/h (10 km/h) 0 mm0 mm 0 cm 0 min 0 W/m²
04:36 8.2 °C 7 °C 92 % 8 km/h (10 km/h) 0 mm0 mm 0 cm 0 min 0 W/m²
04:30 8.1 °C 6.9 °C 92 % 8 km/h (10 km/h) 0 mm0 mm 0 cm 0 min 0 W/m²
04:24 8.3 °C 6.9 °C 91 % 8 km/h (10 km/h) 0 mm0 mm 0 cm 0 min 0 W/m²
04:18 8.4 °C 6.9 °C 90 % 8 km/h (10 km/h) 0 mm0 mm 0 cm 0 min 0 W/m²
04:12 8.7 °C 7.3 °C 91 % 9 km/h (10 km/h) 0 mm0 mm 0 cm 0 min 0 W/m²
04:06 8.7 °C 7.1 °C 90 % 10 km/h (14 km/h) 0 mm0 mm 0 cm 0 min 0 W/m²
04:00 8.9 °C 7.3 °C 90 % 12 km/h (15 km/h) 0 mm0 mm 0 cm 0 min 0 W/m²
03:54 8.8 °C 7.4 °C 91 % 12 km/h (15 km/h) 0 mm0 mm 0 cm 0 min 0 W/m²
03:48 8.7 °C 7.5 °C 92 % 10 km/h (13 km/h) 0 mm0 mm 0 cm 0 min 0 W/m²
03:42 8.5 °C 7.3 °C 92 % 8 km/h (12 km/h) 0 mm0 mm 0 cm 0 min 0 W/m²
03:36 8.5 °C 7.3 °C 92 % 8 km/h (12 km/h) 0 mm0 mm 0 cm 0 min 0 W/m²
03:30 8.5 °C 7.1 °C 91 % 11 km/h (14 km/h) 0 mm0 mm 0 cm 0 min 0 W/m²
03:24 8.6 °C 7.2 °C 91 % 11 km/h (14 km/h) 0 mm0 mm 0 cm 0 min 0 W/m²
03:18 8.8 °C 7.6 °C 92 % 10 km/h (12 km/h) 0 mm0 mm 0 cm 0 min 0 W/m²
03:12 8.7 °C 7.3 °C 91 % 10 km/h (12 km/h) 0 mm0 mm 0 cm 0 min 0 W/m²
03:06 8.8 °C 7.6 °C 92 % 10 km/h (12 km/h) 0 mm0 mm 0 cm 0 min 0 W/m²
03:00 8.5 °C 7.3 °C 92 % 10 km/h (13 km/h) 0 mm0 mm 0 cm 0 min 0 W/m²
02:54 8.4 °C 7.2 °C 92 % 10 km/h (13 km/h) 0 mm0 mm 0 cm 0 min 0 W/m²
02:48 8.3 °C 7.1 °C 92 % 9 km/h (11 km/h) 0 mm0 mm 0 cm 0 min 0 W/m²
02:42 8.4 °C 6.9 °C 90 % 8 km/h (11 km/h) 0 mm0 mm 0 cm 0 min 0 W/m²
02:36 8.8 °C 7.4 °C 91 % 9 km/h (13 km/h) 0 mm0 mm 0 cm 0 min 0 W/m²
02:30 8.9 °C 7.7 °C 92 % 10 km/h (13 km/h) 0 mm0 mm 0 cm 0 min 0 W/m²
02:24 8.9 °C 7.5 °C 91 % 10 km/h (13 km/h) 0 mm0 mm 0 cm 0 min 0 W/m²
02:18 9 °C 7.6 °C 91 % 10 km/h (13 km/h) 0 mm0 mm 0 cm 0 min 0 W/m²
02:12 9 °C 7.4 °C 90 % 9 km/h (12 km/h) 0 mm0 mm 0 cm 0 min 0 W/m²
02:06 9 °C 7.4 °C 90 % 8 km/h (11 km/h) 0 mm0 mm 0 cm 0 min 0 W/m²
02:00 9.2 °C 7.5 °C 89 % 8 km/h (10 km/h) 0 mm0 mm 0 cm 0 min 0 W/m²
01:54 9.3 °C 7.6 °C 89 % 9 km/h (12 km/h) 0 mm0 mm 0 cm 0 min 0 W/m²
01:48 9.5 °C 7.8 °C 89 % 9 km/h (12 km/h) 0 mm0 mm 0 cm 0 min 0 W/m²
01:42 9.5 °C 7.8 °C 89 % 10 km/h (12 km/h) 0 mm0 mm 0 cm 0 min 0 W/m²
01:36 9.4 °C 7.7 °C 89 % 8 km/h (11 km/h) 0 mm0 mm 0 cm 0 min 0 W/m²
01:30 9.3 °C 7.6 °C 89 % 9 km/h (11 km/h) 0 mm0 mm 0 cm 0 min 0 W/m²
01:24 9.2 °C 7.5 °C 89 % 9 km/h (11 km/h) 0 mm0 mm 0 cm 0 min 0 W/m²
01:18 9.4 °C 7.7 °C 89 % 8 km/h (11 km/h) 0 mm0 mm 0 cm 0 min 0 W/m²
01:12 9.5 °C 7.8 °C 89 % 8 km/h (10 km/h) 0 mm0 mm 0 cm 0 min 0 W/m²
01:06 9.5 °C 7.6 °C 88 % 8 km/h (12 km/h) 0 mm0 mm 0 cm 0 min 0 W/m²
01:00 9.9 °C 8 °C 88 % 9 km/h (12 km/h) 0 mm0 mm 0 cm 0 min 0 W/m²
00:54 10 °C 8.1 °C 88 % 9 km/h (12 km/h) 0 mm0 mm 0 cm 0 min 0 W/m²
00:48 10 °C 8.1 °C 88 % 9 km/h (11 km/h) 0 mm0 mm 0 cm 0 min 0 W/m²
00:42 9.8 °C 7.9 °C 88 % 8 km/h (10 km/h) 0 mm0 mm 0 cm 0 min 0 W/m²
00:36 9.8 °C 7.9 °C 88 % 6 km/h (10 km/h) 0 mm0 mm 0 cm 0 min 0 W/m²
00:30 9.9 °C 7.8 °C 87 % 5 km/h (8 km/h) 0 mm0 mm 0 cm 0 min 0 W/m²
00:24 10 °C 7.9 °C 87 % 5 km/h (7 km/h) 0 mm0 mm 0 cm 0 min 0 W/m²
00:18 10 °C 7.9 °C 87 % 6 km/h (8 km/h) 0 mm0 mm 0 cm 0 min 0 W/m²
00:12 10.1 °C 8 °C 87 % 6 km/h (8 km/h) 0 mm0 mm 0 cm 0 min 0 W/m²
00:06 10.4 °C 8 °C 85 % 6 km/h (8 km/h) 0 mm0 mm 0 cm 0 min 0 W/m²
00:00 10.5 °C 8.3 °C 86 % 5 km/h (8 km/h) 0 mm0 mm 0 cm 0 min 0 W/m²

Données via Météo-France

Relevés météo à Marcenat

Cette page rassemble les observations de la station de Marcenat : température, humidité, vent, précipitations et pression atmosphérique. Les graphiques facilitent le suivi de la journée, tandis que le tableau donne accès aux mesures horaires et infra-horaires disponibles.

Pour replacer ces mesures dans leur contexte, consultez la climatologie de Marcenat ainsi que ses normales et records. Retrouvez aussi la carte des observations météo en temps réel.